createdAt,value
2023-03-22T00:04:23.510Z,3.43
2023-03-22T00:09:25.179Z,3.43
2023-03-22T00:14:26.838Z,4.20
2023-03-22T00:19:29.192Z,4.00
2023-03-22T00:24:30.815Z,4.30
2023-03-22T00:29:32.481Z,3.73
2023-03-22T00:34:34.104Z,3.70
2023-03-22T00:39:37.755Z,3.60
2023-03-22T00:44:40.779Z,3.80
2023-03-22T00:49:42.417Z,4.00
2023-03-22T00:54:44.469Z,4.20
2023-03-22T00:59:46.351Z,4.37
2023-03-22T01:04:48.174Z,4.60
2023-03-22T01:09:50.814Z,4.63
2023-03-22T01:14:52.396Z,4.30
2023-03-22T01:19:54.016Z,4.33
2023-03-22T01:24:55.618Z,4.20
2023-03-22T01:29:57.476Z,4.20
2023-03-22T01:34:59.378Z,3.80
2023-03-22T01:40:04.946Z,3.97
2023-03-22T01:45:13.348Z,4.23
2023-03-22T01:50:17.259Z,4.60
2023-03-22T01:55:22.816Z,4.50
2023-03-22T02:00:31.936Z,4.13
2023-03-22T02:05:47.868Z,4.43
2023-03-22T02:10:50.530Z,4.00
2023-03-22T02:16:16.244Z,3.73
2023-03-22T02:21:52.328Z,4.33
2023-03-22T02:27:24.853Z,4.77
2023-03-22T02:32:39.246Z,4.23
2023-03-22T02:38:11.743Z,4.13
2023-03-22T02:43:38.554Z,4.07
2023-03-22T02:48:46.038Z,4.20
2023-03-22T02:54:03.182Z,4.33
2023-03-22T02:59:09.186Z,4.40
2023-03-22T03:04:19.702Z,5.17
2023-03-22T03:09:21.754Z,4.97
2023-03-22T03:14:28.051Z,4.93
2023-03-22T03:19:38.264Z,5.03
2023-03-22T03:25:04.743Z,4.47
2023-03-22T03:30:16.364Z,4.60
2023-03-22T03:35:25.437Z,4.83
2023-03-22T03:40:32.961Z,4.67
2023-03-22T03:45:36.238Z,4.97
2023-03-22T03:50:38.376Z,4.50
2023-03-22T03:55:40.675Z,4.70
2023-03-22T04:00:43.092Z,4.73
2023-03-22T04:05:56.815Z,3.97
2023-03-22T04:10:58.814Z,4.63
2023-03-22T04:16:02.123Z,4.23
2023-03-22T04:21:08.065Z,4.20
2023-03-22T04:26:20.547Z,4.10
2023-03-22T04:31:45.598Z,4.07
2023-03-22T04:37:02.339Z,3.73
2023-03-22T04:42:08.855Z,3.97
2023-03-22T04:47:10.629Z,4.20
2023-03-22T04:52:12.670Z,3.63
2023-03-22T04:57:17.636Z,3.60
2023-03-22T05:02:22.526Z,3.63
2023-03-22T05:07:25.617Z,3.77
2023-03-22T05:12:31.198Z,3.37
2023-03-22T05:17:38.194Z,4.10
2023-03-22T05:22:40.960Z,3.63
2023-03-22T05:27:44.604Z,3.10
2023-03-22T05:33:10.100Z,3.27
2023-03-22T05:38:17.681Z,3.67
2023-03-22T05:43:24.637Z,3.13
2023-03-22T05:48:27.340Z,3.70
2023-03-22T05:53:29.967Z,4.10
2023-03-22T05:58:36.422Z,3.80
2023-03-22T06:03:39.331Z,3.63
2023-03-22T06:08:48.620Z,3.97
2023-03-22T06:13:50.367Z,3.03
2023-03-22T06:18:53.778Z,3.23
2023-03-22T06:23:55.787Z,3.57
2023-03-22T06:28:59.085Z,3.30
2023-03-22T06:34:01.282Z,2.87
2023-03-22T06:39:15.739Z,3.07
2023-03-22T06:44:19.617Z,3.00
2023-03-22T06:49:27.923Z,2.50
2023-03-22T06:54:30.461Z,3.00
2023-03-22T06:59:34.595Z,2.47
2023-03-22T07:04:37.607Z,2.40
2023-03-22T07:09:39.801Z,2.70
2023-03-22T07:14:41.640Z,2.33
2023-03-22T07:19:56.192Z,2.50
2023-03-22T07:25:00.619Z,2.17
2023-03-22T07:30:09.654Z,2.10
2023-03-22T07:35:16.713Z,1.87
2023-03-22T07:40:18.977Z,2.10
2023-03-22T07:45:22.662Z,2.00
2023-03-22T07:50:50.263Z,1.73
2023-03-22T07:55:51.849Z,1.50
2023-03-22T08:00:53.404Z,1.53
2023-03-22T08:06:13.534Z,1.63
2023-03-22T08:11:15.606Z,1.50
2023-03-22T08:16:17.805Z,1.50
2023-03-22T08:21:20.259Z,1.93
2023-03-22T08:26:27.335Z,1.50
2023-03-22T08:31:31.835Z,1.17
2023-03-22T08:36:34.229Z,1.30
2023-03-22T08:41:39.461Z,1.10
2023-03-22T08:46:41.296Z,1.30
2023-03-22T08:51:43.073Z,1.30
2023-03-22T08:56:52.519Z,1.33
2023-03-22T09:02:19.853Z,0.80
2023-03-22T09:07:22.446Z,1.23
2023-03-22T09:12:34.647Z,1.60
2023-03-22T09:17:36.839Z,1.10
2023-03-22T09:22:39.229Z,1.00
2023-03-22T09:27:42.257Z,1.20
2023-03-22T09:32:44.171Z,0.80
2023-03-22T09:37:49.527Z,0.80
2023-03-22T09:42:54.673Z,0.90
2023-03-22T09:47:57.429Z,0.87
2023-03-22T09:53:00.348Z,1.07
2023-03-22T09:58:38.620Z,0.67
2023-03-22T10:04:17.137Z,0.80
2023-03-22T10:09:44.664Z,0.77
2023-03-22T10:14:51.719Z,0.73
2023-03-22T10:20:09.736Z,1.00
2023-03-22T10:25:16.961Z,0.80
2023-03-22T10:30:38.570Z,0.60
2023-03-22T10:35:41.562Z,0.90
2023-03-22T10:40:43.758Z,0.80
2023-03-22T10:45:45.561Z,0.60
2023-03-22T10:50:47.692Z,0.60
2023-03-22T10:55:49.298Z,1.00
2023-03-22T11:00:53.600Z,0.83
2023-03-22T11:06:04.682Z,0.70
2023-03-22T11:11:08.725Z,0.80
2023-03-22T11:16:10.329Z,1.20
2023-03-22T11:21:13.002Z,0.67
2023-03-22T11:26:15.330Z,0.80
2023-03-22T11:37:08.449Z,0.77
2023-03-22T11:42:18.597Z,0.57
2023-03-22T11:47:20.216Z,1.20
2023-03-22T11:52:27.058Z,0.60
2023-03-22T11:57:34.412Z,1.00
2023-03-22T12:02:58.494Z,0.97
2023-03-22T12:08:13.348Z,0.70
2023-03-22T12:13:21.510Z,1.00
2023-03-22T12:18:30.927Z,0.90
2023-03-22T12:23:36.811Z,0.90
2023-03-22T12:28:53.663Z,1.00
2023-03-22T12:34:01.665Z,0.80
2023-03-22T12:39:05.180Z,0.70
2023-03-22T12:44:31.776Z,0.83
2023-03-22T12:49:46.007Z,0.80
2023-03-22T12:54:48.654Z,0.90
2023-03-22T12:59:52.146Z,0.87
2023-03-22T13:04:58.785Z,0.87
2023-03-22T13:10:01.504Z,0.90
2023-03-22T13:15:41.336Z,0.80
2023-03-22T13:20:43.675Z,0.83
2023-03-22T13:26:03.502Z,1.13
2023-03-22T13:31:05.687Z,1.10
2023-03-22T13:36:07.733Z,1.00
2023-03-22T13:41:21.121Z,0.80
2023-03-22T13:46:22.807Z,1.10
2023-03-22T13:51:33.511Z,0.87
2023-03-22T13:56:41.876Z,1.27
2023-03-22T14:01:47.549Z,0.97
2023-03-22T14:06:52.998Z,0.67
2023-03-22T14:12:09.966Z,0.90
2023-03-22T14:17:24.985Z,0.80
